Sunnyside, Illinois
Current Conditions -  °F | °C
As of 6:55 AM on Monday 22 Dec 2014 (Local Time) from KUGN Reporting Station
Haze Haze  
Wind Chill: 25°   Ceiling: 6000
Heat Index: 33°   Visibility: 5mi
Dew Point: 29°   Wind: 10mph
Humidity: 85%   Direction: 130°SE
Pressure: 29.93"   Gusts: NA
Location:  42.359°N, 88.2783°W
Report Text: KUGN 221255Z 13009KT 5SM BR OVC060 01/M02 A2993 RMK AO2 SLP146 T00061017
Loading
Personal Weather Stations






























Interactive Weather Map New forecast layout! Learn more

10-Day Weather Forecast

Advertisements
Track Severe Weather on mobile